createdAt,value
2023-04-12T00:00:56.949Z, 36.93
2023-04-12T00:01:56.976Z, 36.93
2023-04-12T00:02:57.073Z, 36.90
2023-04-12T00:03:57.308Z, 36.89
2023-04-12T00:04:57.015Z, 36.86
2023-04-12T00:05:56.996Z, 36.89
2023-04-12T00:06:57.040Z, 36.92
2023-04-12T00:07:57.020Z, 36.90
2023-04-12T00:08:57.027Z, 36.92
2023-04-12T00:09:57.015Z, 36.93
2023-04-12T00:10:57.047Z, 36.90
2023-04-12T00:11:57.026Z, 36.85
2023-04-12T00:12:57.053Z, 36.83
2023-04-12T00:13:57.304Z, 36.80
2023-04-12T00:14:57.058Z, 36.81
2023-04-12T00:15:57.082Z, 36.82
2023-04-12T00:16:57.086Z, 36.78
2023-04-12T00:17:57.146Z, 36.75
2023-04-12T00:18:57.101Z, 36.79
2023-04-12T00:19:57.124Z, 36.80
2023-04-12T00:20:57.118Z, 36.78
2023-04-12T00:21:57.176Z, 36.76
2023-04-12T00:22:57.152Z, 36.69
2023-04-12T00:23:57.460Z, 36.71
2023-04-12T00:24:57.209Z, 36.72
2023-04-12T00:25:57.281Z, 36.67
2023-04-12T00:26:57.263Z, 36.66
2023-04-12T00:27:57.266Z, 36.65
2023-04-12T00:28:57.259Z, 36.67
2023-04-12T00:29:57.257Z, 36.62
2023-04-12T00:30:57.369Z, 36.65
2023-04-12T00:31:57.297Z, 36.64
2023-04-12T00:32:57.339Z, 36.65
2023-04-12T00:33:57.399Z, 36.65
2023-04-12T00:34:57.319Z, 36.65
2023-04-12T00:35:57.334Z, 36.60
2023-04-12T00:36:57.376Z, 36.62
2023-04-12T00:37:57.354Z, 36.62
2023-04-12T00:38:57.374Z, 36.60
2023-04-12T00:39:57.364Z, 36.60
2023-04-12T00:40:57.384Z, 36.58
2023-04-12T00:41:57.465Z, 36.57
2023-04-12T00:42:57.394Z, 36.58
2023-04-12T00:43:57.581Z, 36.56
2023-04-12T00:44:57.417Z, 36.59
2023-04-12T00:45:57.424Z, 36.59
2023-04-12T00:46:57.546Z, 36.57
2023-04-12T00:47:57.524Z, 36.52
2023-04-12T00:48:57.541Z, 36.52
2023-04-12T00:49:57.523Z, 36.48
2023-04-12T00:50:57.635Z, 36.40
2023-04-12T00:51:57.529Z, 36.42
2023-04-12T00:52:57.553Z, 36.45
2023-04-12T00:53:57.729Z, 36.39
2023-04-12T00:54:57.603Z, 36.31
2023-04-12T00:55:57.599Z, 36.32
2023-04-12T00:56:57.618Z, 36.36
2023-04-12T00:57:57.660Z, 36.38
2023-04-12T00:58:57.633Z, 36.37
2023-04-12T00:59:57.683Z, 36.35
2023-04-12T01:00:57.709Z, 36.36
2023-04-12T01:01:57.790Z, 36.36
2023-04-12T01:02:57.771Z, 36.35
2023-04-12T01:03:58.117Z, 36.32
2023-04-12T01:04:57.665Z, 36.33
2023-04-12T01:05:57.654Z, 36.33
2023-04-12T01:06:57.664Z, 36.25
2023-04-12T01:07:57.681Z, 36.29
2023-04-12T01:08:57.714Z, 36.31
2023-04-12T01:09:57.711Z, 36.30
2023-04-12T01:10:57.794Z, 36.29
2023-04-12T01:11:57.770Z, 36.26
2023-04-12T01:12:57.766Z, 36.25
2023-04-12T01:13:58.061Z, 36.24
2023-04-12T01:14:57.811Z, 36.26
2023-04-12T01:15:57.901Z, 36.21
2023-04-12T01:16:57.860Z, 36.21
2023-04-12T01:17:57.897Z, 36.19
2023-04-12T01:18:57.865Z, 36.20
2023-04-12T01:19:57.998Z, 36.22
2023-04-12T01:20:57.954Z, 36.19
2023-04-12T01:21:57.864Z, 36.18
2023-04-12T01:22:57.923Z, 36.19
2023-04-12T01:23:58.185Z, 36.20
2023-04-12T01:24:57.900Z, 36.17
2023-04-12T01:25:57.937Z, 36.08
2023-04-12T01:26:57.926Z, 36.08
2023-04-12T01:27:57.984Z, 36.05
2023-04-12T01:28:57.965Z, 36.03
2023-04-12T01:29:57.969Z, 36.00
2023-04-12T01:30:57.969Z, 35.99
2023-04-12T01:31:58.154Z, 36.01
2023-04-12T01:32:57.988Z, 36.01
2023-04-12T01:33:58.151Z, 35.99
2023-04-12T01:34:57.981Z, 35.97
2023-04-12T01:35:58.042Z, 35.97
2023-04-12T01:36:58.019Z, 35.94
2023-04-12T01:37:58.040Z, 35.91
2023-04-12T01:38:58.120Z, 35.95
2023-04-12T01:39:58.094Z, 35.96
2023-04-12T01:40:58.139Z, 35.94
2023-04-12T01:41:58.119Z, 35.92
2023-04-12T01:42:58.176Z, 35.93
2023-04-12T01:43:58.578Z, 35.95
2023-04-12T01:44:58.153Z, 35.92
2023-04-12T01:45:58.181Z, 35.90
2023-04-12T01:46:58.147Z, 35.87
2023-04-12T01:47:58.276Z, 35.87
2023-04-12T01:48:58.204Z, 35.87
2023-04-12T01:49:58.210Z, 35.85
2023-04-12T01:50:58.200Z, 35.85
2023-04-12T01:51:58.206Z, 35.81
2023-04-12T01:52:58.210Z, 35.82
2023-04-12T01:53:58.409Z, 35.82
2023-04-12T01:54:58.224Z, 35.80
2023-04-12T01:55:58.297Z, 35.76
2023-04-12T01:56:58.340Z, 35.77
2023-04-12T01:57:58.285Z, 35.83
2023-04-12T01:58:58.307Z, 35.84
2023-04-12T01:59:58.298Z, 35.76
2023-04-12T02:00:58.347Z, 35.78
2023-04-12T02:01:58.432Z, 35.73
2023-04-12T02:02:58.438Z, 35.76
2023-04-12T02:03:58.754Z, 35.76
2023-04-12T02:04:58.387Z, 35.77
2023-04-12T02:05:58.398Z, 35.72
2023-04-12T02:06:58.391Z, 35.71
2023-04-12T02:07:58.433Z, 35.72
2023-04-12T02:08:58.425Z, 35.73
2023-04-12T02:09:58.422Z, 35.72
2023-04-12T02:10:58.504Z, 35.69
2023-04-12T02:11:58.480Z, 35.67
2023-04-12T02:12:58.477Z, 35.65
2023-04-12T02:13:58.811Z, 35.65
2023-04-12T02:14:58.488Z, 35.62
2023-04-12T02:15:58.486Z, 35.65
2023-04-12T02:16:58.700Z, 35.65
2023-04-12T02:17:58.596Z, 35.62
2023-04-12T02:18:58.543Z, 35.64
2023-04-12T02:19:58.595Z, 35.60
2023-04-12T02:20:58.588Z, 35.61
2023-04-12T02:21:58.616Z, 35.57
2023-04-12T02:22:58.595Z, 35.58
2023-04-12T02:23:58.803Z, 35.59
2023-04-12T02:24:58.620Z, 35.54
2023-04-12T02:25:58.625Z, 35.53
2023-04-12T02:26:58.692Z, 35.54
2023-04-12T02:27:58.659Z, 35.57
2023-04-12T02:28:58.707Z, 35.57
2023-04-12T02:29:58.699Z, 35.58
2023-04-12T02:30:58.699Z, 35.58
2023-04-12T02:31:58.690Z, 35.53
2023-04-12T02:32:58.804Z, 35.52
2023-04-12T02:33:58.771Z, 35.45
2023-04-12T02:34:58.715Z, 35.48
2023-04-12T02:35:58.852Z, 35.50
2023-04-12T02:36:58.775Z, 35.51
2023-04-12T02:37:58.867Z, 35.48
2023-04-12T02:38:58.803Z, 35.47
2023-04-12T02:39:58.845Z, 35.41
2023-04-12T02:40:58.836Z, 35.39
2023-04-12T02:41:58.823Z, 35.38
2023-04-12T02:42:58.842Z, 35.35
2023-04-12T02:43:59.006Z, 35.36
2023-04-12T02:44:58.894Z, 35.36
2023-04-12T02:45:58.892Z, 35.40
2023-04-12T02:46:58.867Z, 35.37
2023-04-12T02:47:58.917Z, 35.39
2023-04-12T02:48:58.906Z, 35.40
2023-04-12T02:49:58.893Z, 35.37
2023-04-12T02:50:58.899Z, 35.34
2023-04-12T02:51:58.989Z, 35.33
2023-04-12T02:52:58.966Z, 35.31
2023-04-12T02:53:59.196Z, 35.30
2023-04-12T02:54:59.003Z, 35.32
2023-04-12T02:55:59.031Z, 35.28
2023-04-12T02:56:58.996Z, 35.27
2023-04-12T02:57:59.090Z, 35.25
2023-04-12T02:58:59.056Z, 35.21
2023-04-12T02:59:59.071Z, 35.16
2023-04-12T03:00:59.082Z, 35.19
2023-04-12T03:01:59.114Z, 35.18
2023-04-12T03:02:59.308Z, 35.17
2023-04-12T03:03:59.405Z, 35.16
2023-04-12T03:04:59.160Z, 35.20
2023-04-12T03:05:59.147Z, 35.16
2023-04-12T03:06:59.155Z, 35.12
2023-04-12T03:07:59.145Z, 35.14
2023-04-12T03:08:59.166Z, 35.11
2023-04-12T03:09:59.173Z, 35.12
2023-04-12T03:10:59.173Z, 35.06
2023-04-12T03:11:59.159Z, 35.05
2023-04-12T03:12:59.185Z, 35.09
2023-04-12T03:13:59.189Z, 35.10
2023-04-12T03:14:59.221Z, 35.09
2023-04-12T03:15:59.331Z, 35.08
2023-04-12T03:16:59.227Z, 35.07
2023-04-12T03:17:59.329Z, 35.07
2023-04-12T03:18:59.276Z, 35.06
2023-04-12T03:19:59.347Z, 35.05
2023-04-12T03:20:59.314Z, 35.08
2023-04-12T03:21:59.374Z, 35.06
2023-04-12T03:22:59.351Z, 35.03
2023-04-12T03:23:59.519Z, 35.05
2023-04-12T03:24:59.346Z, 35.05
2023-04-12T03:25:59.367Z, 35.03
2023-04-12T03:26:59.376Z, 35.02
2023-04-12T03:27:59.376Z, 35.00
2023-04-12T03:28:59.505Z, 34.99
2023-04-12T03:29:59.438Z, 34.95
2023-04-12T03:30:59.485Z, 34.98
2023-04-12T03:31:59.478Z, 36.20
2023-04-12T03:32:59.467Z, 38.57
2023-04-12T03:33:59.703Z, 40.23
2023-04-12T03:34:59.458Z, 41.13
2023-04-12T03:35:59.493Z, 41.99
2023-04-12T03:36:59.489Z, 42.55
2023-04-12T03:37:59.490Z, 43.06
2023-04-12T03:38:59.516Z, 43.48
2023-04-12T03:39:59.515Z, 43.83
2023-04-12T03:40:59.524Z, 44.13
2023-04-12T03:41:59.617Z, 44.49
2023-04-12T03:43:01.860Z, 44.82
2023-04-12T03:43:59.586Z, 45.09
2023-04-12T03:44:59.581Z, 45.39
2023-04-12T03:45:59.610Z, 45.63
2023-04-12T03:46:59.679Z, 45.93
2023-04-12T03:47:59.703Z, 46.21
2023-04-12T03:48:59.697Z, 46.45
2023-04-12T03:50:11.172Z, 46.66
2023-04-12T03:50:59.741Z, 46.81
2023-04-12T03:51:59.719Z, 46.92
2023-04-12T03:52:59.764Z, 47.04
2023-04-12T03:53:59.924Z, 47.15
2023-04-12T03:54:59.787Z, 47.28
2023-04-12T03:55:59.759Z, 47.31
2023-04-12T03:56:59.749Z, 47.41
2023-04-12T03:57:59.755Z, 47.47
2023-04-12T03:58:59.750Z, 47.52
2023-04-12T03:59:59.777Z, 47.60
2023-04-12T04:00:59.784Z, 47.64
2023-04-12T04:01:59.858Z, 47.65
2023-04-12T04:02:59.921Z, 47.63
2023-04-12T04:04:00.206Z, 47.60
2023-04-12T04:04:59.879Z, 47.63
2023-04-12T04:05:59.911Z, 47.65
2023-04-12T04:06:59.870Z, 47.62
2023-04-12T04:07:59.874Z, 47.63
2023-04-12T04:08:59.876Z, 47.63
2023-04-12T04:09:59.897Z, 47.60
2023-04-12T04:10:59.966Z, 47.56
2023-04-12T04:11:59.930Z, 47.56
2023-04-12T04:12:59.943Z, 47.53
2023-04-12T04:13:59.954Z, 47.48
2023-04-12T04:14:59.947Z, 47.45
2023-04-12T04:16:00.083Z, 47.43
2023-04-12T04:17:00.002Z, 47.42
2023-04-12T04:18:00.049Z, 47.42
2023-04-12T04:19:00.011Z, 47.42
2023-04-12T04:20:00.056Z, 47.38
2023-04-12T04:21:00.024Z, 47.39
2023-04-12T04:22:00.096Z, 47.36
2023-04-12T04:23:00.119Z, 47.35
2023-04-12T04:24:00.136Z, 47.34
2023-04-12T04:25:00.128Z, 47.29
2023-04-12T04:26:00.123Z, 47.32
2023-04-12T04:27:00.143Z, 47.28
2023-04-12T04:28:00.124Z, 47.26
2023-04-12T04:29:00.207Z, 47.26
2023-04-12T04:30:00.209Z, 47.22
2023-04-12T04:31:00.167Z, 47.16
2023-04-12T04:32:00.286Z, 47.07
2023-04-12T04:33:00.274Z, 46.97
2023-04-12T04:34:00.244Z, 46.88
2023-04-12T04:35:00.236Z, 46.92
2023-04-12T04:36:00.250Z, 47.00
2023-04-12T04:37:00.231Z, 47.06
2023-04-12T04:38:00.243Z, 47.11
2023-04-12T04:39:00.257Z, 47.18
2023-04-12T04:40:00.278Z, 47.20
2023-04-12T04:41:00.310Z, 47.17
2023-04-12T04:42:00.366Z, 47.06
2023-04-12T04:43:00.325Z, 46.74
2023-04-12T04:44:00.401Z, 46.87
2023-04-12T04:45:00.364Z, 48.16
2023-04-12T04:46:00.452Z, 49.76
2023-04-12T04:47:00.392Z, 53.05
2023-04-12T04:48:00.483Z, 56.47
2023-04-12T04:49:00.414Z, 60.47
2023-04-12T04:50:00.406Z, 69.33
2023-04-12T04:51:00.419Z, 58.70
2023-04-12T04:52:00.413Z, 54.93
2023-04-12T04:53:00.477Z, 55.30
2023-04-12T04:54:00.543Z, 57.19
2023-04-12T04:55:00.520Z, 59.51
2023-04-12T04:56:00.497Z, 69.64
2023-04-12T04:57:00.494Z, 64.55
2023-04-12T04:58:00.485Z, 58.30
2023-04-12T04:59:00.634Z, 56.17
2023-04-12T05:00:00.510Z, 55.64
2023-04-12T05:01:00.569Z, 55.95
2023-04-12T05:02:00.616Z, 56.22
2023-04-12T05:03:00.599Z, 56.74
2023-04-12T05:04:00.669Z, 57.85
2023-04-12T05:05:00.575Z, 57.81
2023-04-12T05:06:00.673Z, 57.51
2023-04-12T05:07:00.633Z, 57.16
2023-04-12T05:08:00.688Z, 56.82
2023-04-12T05:09:00.693Z, 56.55
2023-04-12T05:10:00.730Z, 56.26
2023-04-12T05:11:00.700Z, 55.95
2023-04-12T05:12:00.752Z, 55.56
2023-04-12T05:13:00.721Z, 55.20
2023-04-12T05:14:00.733Z, 54.96
2023-04-12T05:16:00.720Z, 54.48
2023-04-12T05:17:00.814Z, 54.25
2023-04-12T05:18:00.798Z, 54.21
2023-04-12T05:19:00.751Z, 54.10
2023-04-12T05:20:00.814Z, 53.85
2023-04-12T05:21:00.791Z, 53.66
2023-04-12T05:22:00.846Z, 53.38
2023-04-12T05:23:00.826Z, 53.14
2023-04-12T05:24:00.867Z, 52.90
2023-04-12T05:25:00.853Z, 52.71
2023-04-12T05:26:00.925Z, 52.52
2023-04-12T05:27:00.900Z, 52.34
2023-04-12T05:28:00.939Z, 52.18
2023-04-12T05:29:00.928Z, 52.04
2023-04-12T05:30:00.957Z, 51.85
2023-04-12T05:31:00.978Z, 51.70
2023-04-12T05:32:00.966Z, 51.55
2023-04-12T05:33:01.006Z, 51.40
2023-04-12T05:34:00.975Z, 51.26
2023-04-12T05:35:00.977Z, 51.10
2023-04-12T05:36:01.037Z, 51.00
2023-04-12T05:37:00.983Z, 50.93
2023-04-12T05:38:00.988Z, 50.81
2023-04-12T05:39:00.997Z, 50.71
2023-04-12T05:40:01.019Z, 50.65
2023-04-12T05:41:01.132Z, 50.53
2023-04-12T05:42:01.084Z, 50.44
2023-04-12T05:43:01.111Z, 50.36
2023-04-12T05:44:01.086Z, 50.27
2023-04-12T05:45:01.165Z, 50.13
2023-04-12T05:46:01.172Z, 49.99
2023-04-12T05:47:01.203Z, 49.91
2023-04-12T05:48:01.202Z, 49.93
2023-04-12T05:49:01.157Z, 49.84
2023-04-12T05:50:01.167Z, 49.75
2023-04-12T05:51:01.159Z, 49.75
2023-04-12T05:52:01.173Z, 49.66
2023-04-12T05:53:01.187Z, 49.57
2023-04-12T05:54:01.222Z, 49.49
2023-04-12T05:55:01.202Z, 49.48
2023-04-12T05:56:01.241Z, 49.41
2023-04-12T05:57:01.228Z, 49.37
2023-04-12T05:58:01.257Z, 49.30
2023-04-12T05:59:01.260Z, 49.23
2023-04-12T06:00:01.289Z, 49.14
2023-04-12T06:01:01.305Z, 49.12
2023-04-12T06:02:01.330Z, 49.05
2023-04-12T06:03:01.407Z, 48.98
2023-04-12T06:04:01.584Z, 48.90
2023-04-12T06:05:01.499Z, 48.82
2023-04-12T06:06:01.352Z, 48.76
2023-04-12T06:07:01.349Z, 48.70
2023-04-12T06:08:01.355Z, 48.71
2023-04-12T06:09:01.391Z, 48.62
2023-04-12T06:10:01.382Z, 48.53
2023-04-12T06:11:01.406Z, 48.49
2023-04-12T06:12:01.387Z, 48.47
2023-04-12T06:13:01.482Z, 48.36
2023-04-12T06:14:01.429Z, 48.37
2023-04-12T06:15:01.580Z, 48.25
2023-04-12T06:16:01.520Z, 48.19
2023-04-12T06:17:01.531Z, 48.14
2023-04-12T06:18:01.580Z, 48.05
2023-04-12T06:19:01.557Z, 48.11
2023-04-12T06:20:01.527Z, 48.08
2023-04-12T06:21:01.527Z, 48.08
2023-04-12T06:22:01.531Z, 48.16
2023-04-12T06:23:01.551Z, 48.13
2023-04-12T06:24:01.544Z, 48.10
2023-04-12T06:25:01.573Z, 48.06
2023-04-12T06:26:01.616Z, 48.00
2023-04-12T06:27:01.638Z, 48.02
2023-04-12T06:28:01.595Z, 47.94
2023-04-12T06:29:01.590Z, 47.80
2023-04-12T06:30:01.679Z, 47.83
2023-04-12T06:31:01.654Z, 47.73
2023-04-12T06:32:01.754Z, 47.71
2023-04-12T06:33:01.744Z, 47.66
2023-04-12T06:34:01.698Z, 47.67
2023-04-12T06:35:01.726Z, 47.65
2023-04-12T06:36:01.795Z, 47.66
2023-04-12T06:37:01.748Z, 47.61
2023-04-12T06:38:01.760Z, 47.63
2023-04-12T06:39:01.740Z, 47.54
2023-04-12T06:40:01.747Z, 47.47
2023-04-12T06:41:01.765Z, 47.40
2023-04-12T06:42:01.822Z, 47.41
2023-04-12T06:43:01.918Z, 47.39
2023-04-12T06:44:01.812Z, 47.33
2023-04-12T06:45:01.850Z, 47.42
2023-04-12T06:46:01.860Z, 47.33
2023-04-12T06:47:01.922Z, 47.30
2023-04-12T06:48:01.949Z, 47.23
2023-04-12T06:49:01.881Z, 47.20
2023-04-12T06:50:01.847Z, 47.18
2023-04-12T06:51:01.847Z, 47.08
2023-04-12T06:52:02.014Z, 47.09
2023-04-12T06:53:01.912Z, 47.09
2023-04-12T06:54:01.960Z, 47.10
2023-04-12T06:55:01.941Z, 47.17
2023-04-12T06:56:01.971Z, 47.08
2023-04-12T06:57:01.942Z, 47.02
2023-04-12T06:58:01.947Z, 46.94
2023-04-12T06:59:02.003Z, 46.95
2023-04-12T07:00:02.010Z, 46.91
2023-04-12T07:01:02.009Z, 46.90
2023-04-12T07:02:02.077Z, 46.91
2023-04-12T07:03:02.197Z, 46.92
2023-04-12T07:04:02.140Z, 46.76
2023-04-12T07:05:02.123Z, 46.72
2023-04-12T07:06:10.599Z, 46.70
2023-04-12T07:07:02.142Z, 46.66
2023-04-12T07:08:02.120Z, 46.70
2023-04-12T07:09:02.162Z, 46.63
2023-04-12T07:10:02.157Z, 46.70
2023-04-12T07:11:17.900Z, 46.72
2023-04-12T07:12:02.214Z, 46.64
2023-04-12T07:13:02.239Z, 46.58
2023-04-12T07:14:02.230Z, 46.64
2023-04-12T07:15:02.197Z, 46.62
2023-04-12T07:16:02.289Z, 46.56
2023-04-12T07:17:02.231Z, 46.54
2023-04-12T07:18:02.324Z, 46.55
2023-04-12T07:19:02.237Z, 46.52
2023-04-12T07:20:02.247Z, 46.50
2023-04-12T07:21:02.290Z, 46.48
2023-04-12T07:22:02.246Z, 46.47
2023-04-12T07:23:02.331Z, 46.38
2023-04-12T07:24:02.305Z, 46.42
2023-04-12T07:25:02.354Z, 46.32
2023-04-12T07:26:02.376Z, 46.33
2023-04-12T07:27:02.309Z, 46.31
2023-04-12T07:28:02.516Z, 46.27
2023-04-12T07:29:02.396Z, 46.33
2023-04-12T07:30:02.436Z, 46.22
2023-04-12T07:31:02.389Z, 46.17
2023-04-12T07:32:02.411Z, 46.22
2023-04-12T07:33:12.424Z, 46.14
2023-04-12T07:34:02.656Z, 46.07
2023-04-12T07:35:02.440Z, 46.08
2023-04-12T07:36:02.478Z, 46.01
2023-04-12T07:37:02.510Z, 45.95
2023-04-12T07:38:02.469Z, 45.89
2023-04-12T07:39:02.507Z, 45.95
2023-04-12T07:40:02.531Z, 45.88
2023-04-12T07:41:02.519Z, 45.84
2023-04-12T07:42:02.512Z, 45.86
2023-04-12T07:43:02.514Z, 45.88
2023-04-12T07:44:02.553Z, 45.87
2023-04-12T07:45:02.546Z, 45.87
2023-04-12T07:46:02.660Z, 45.84
2023-04-12T07:47:02.604Z, 45.83
2023-04-12T07:48:02.672Z, 45.79
2023-04-12T07:49:02.604Z, 45.81
2023-04-12T07:50:02.616Z, 45.85
2023-04-12T07:51:02.604Z, 45.78
2023-04-12T07:52:02.671Z, 45.78
2023-04-12T07:53:02.621Z, 45.75
2023-04-12T07:54:02.646Z, 45.76
2023-04-12T07:55:02.684Z, 45.71
2023-04-12T07:56:02.691Z, 45.68
2023-04-12T07:57:02.771Z, 45.65
2023-04-12T07:58:02.738Z, 45.66
2023-04-12T07:59:02.804Z, 45.59
2023-04-12T08:00:02.775Z, 45.57
2023-04-12T08:01:02.839Z, 45.60
2023-04-12T08:02:02.914Z, 45.57
2023-04-12T08:03:02.954Z, 45.51
2023-04-12T08:04:03.309Z, 45.54
2023-04-12T08:05:02.846Z, 45.49
2023-04-12T08:06:02.916Z, 45.43
2023-04-12T08:07:02.855Z, 45.46
2023-04-12T08:08:02.846Z, 45.44
2023-04-12T08:09:02.864Z, 45.41
2023-04-12T08:10:02.849Z, 45.39
2023-04-12T08:11:02.935Z, 45.31
2023-04-12T08:12:02.900Z, 45.27
2023-04-12T08:13:02.896Z, 45.27
2023-04-12T08:14:02.964Z, 45.26
2023-04-12T08:15:02.939Z, 45.23
2023-04-12T08:16:03.063Z, 45.21
2023-04-12T08:17:02.972Z, 45.19
2023-04-12T08:18:03.075Z, 45.17
2023-04-12T08:19:03.002Z, 45.14
2023-04-12T08:20:02.995Z, 45.13
2023-04-12T08:21:02.996Z, 45.04
2023-04-12T08:22:02.984Z, 45.12
2023-04-12T08:23:03.009Z, 45.14
2023-04-12T08:24:03.028Z, 45.04
2023-04-12T08:25:03.146Z, 44.95
2023-04-12T08:26:03.150Z, 44.96
2023-04-12T08:27:03.098Z, 45.01
2023-04-12T08:28:03.089Z, 45.00
2023-04-12T08:29:03.093Z, 44.99
2023-04-12T08:30:03.121Z, 45.00
2023-04-12T08:31:03.172Z, 45.00
2023-04-12T08:32:03.185Z, 44.99
2023-04-12T08:33:03.181Z, 45.03
2023-04-12T08:34:03.233Z, 45.00
2023-04-12T08:35:03.210Z, 44.96
2023-04-12T08:36:03.210Z, 44.98
2023-04-12T08:37:03.196Z, 44.92
2023-04-12T08:38:03.217Z, 44.96
2023-04-12T08:39:03.268Z, 44.91
2023-04-12T08:40:03.241Z, 44.83
2023-04-12T08:41:03.302Z, 44.74
2023-04-12T08:42:03.284Z, 44.72
2023-04-12T08:43:03.280Z, 44.68
2023-04-12T08:44:03.308Z, 44.69
2023-04-12T08:45:03.286Z, 44.69
2023-04-12T08:46:03.405Z, 44.69
2023-04-12T08:47:03.403Z, 44.68
2023-04-12T08:48:03.437Z, 44.65
2023-04-12T08:49:03.350Z, 44.57
2023-04-12T08:50:03.409Z, 44.56
2023-04-12T08:51:03.366Z, 44.58
2023-04-12T08:52:03.368Z, 44.55
2023-04-12T08:53:03.407Z, 44.51
2023-04-12T08:54:03.423Z, 44.54
2023-04-12T08:55:03.394Z, 44.52
2023-04-12T08:56:03.458Z, 44.42
2023-04-12T08:57:03.436Z, 44.36
2023-04-12T08:58:03.439Z, 44.39
2023-04-12T08:59:03.519Z, 44.44
2023-04-12T09:00:03.492Z, 44.33
2023-04-12T09:01:03.544Z, 44.37
2023-04-12T09:02:03.648Z, 44.40
2023-04-12T09:03:03.773Z, 44.42
2023-04-12T09:04:03.940Z, 44.40
2023-04-12T09:05:03.659Z, 44.34
2023-04-12T09:06:03.595Z, 44.33
2023-04-12T09:07:03.562Z, 44.36
2023-04-12T09:08:03.644Z, 44.35
2023-04-12T09:09:03.572Z, 44.35
2023-04-12T09:10:03.644Z, 44.28
2023-04-12T09:11:03.635Z, 44.28
2023-04-12T09:12:03.684Z, 44.23
2023-04-12T09:13:03.654Z, 44.27
2023-04-12T09:14:03.687Z, 44.21
2023-04-12T09:15:03.674Z, 44.19
2023-04-12T09:16:03.677Z, 44.19
2023-04-12T09:17:03.775Z, 44.14
2023-04-12T09:18:03.762Z, 44.16
2023-04-12T09:19:03.771Z, 44.13
2023-04-12T09:20:03.733Z, 44.07
2023-04-12T09:21:03.818Z, 44.07
2023-04-12T09:22:03.792Z, 44.12
2023-04-12T09:23:03.800Z, 44.07
2023-04-12T09:24:03.806Z, 44.03
2023-04-12T09:25:03.852Z, 44.04
2023-04-12T09:26:03.854Z, 43.99
2023-04-12T09:27:03.825Z, 44.02
2023-04-12T09:28:03.846Z, 44.00
2023-04-12T09:29:03.839Z, 43.95
2023-04-12T09:30:03.900Z, 43.99
2023-04-12T09:31:03.902Z, 44.00
2023-04-12T09:32:04.053Z, 43.99
2023-04-12T09:33:03.936Z, 43.92
2023-04-12T09:34:03.891Z, 43.87
2023-04-12T09:35:03.905Z, 43.88
2023-04-12T09:36:03.982Z, 43.83
2023-04-12T09:37:03.988Z, 43.90
2023-04-12T09:38:03.951Z, 43.83
2023-04-12T09:39:03.989Z, 43.85
2023-04-12T09:40:03.966Z, 43.88
2023-04-12T09:41:04.024Z, 43.86
2023-04-12T09:42:03.997Z, 43.82
2023-04-12T09:43:04.034Z, 43.73
2023-04-12T09:44:04.129Z, 43.73
2023-04-12T09:45:04.056Z, 43.65
2023-04-12T09:46:04.196Z, 43.65
2023-04-12T09:47:04.166Z, 43.62
2023-04-12T09:48:04.178Z, 43.63
2023-04-12T09:49:04.115Z, 43.63
2023-04-12T09:50:04.136Z, 43.63
2023-04-12T09:51:04.175Z, 43.64
2023-04-12T09:52:04.170Z, 43.61
2023-04-12T09:53:04.149Z, 43.60
2023-04-12T09:54:04.217Z, 43.60
2023-04-12T09:55:04.252Z, 43.53
2023-04-12T09:56:04.290Z, 43.57
2023-04-12T09:57:04.209Z, 43.55
2023-04-12T09:58:04.213Z, 43.51
2023-04-12T09:59:04.297Z, 43.48
2023-04-12T10:00:04.222Z, 43.43
2023-04-12T10:01:04.277Z, 43.56
2023-04-12T10:02:04.412Z, 44.94
2023-04-12T10:03:04.662Z, 45.85
2023-04-12T10:04:04.958Z, 46.04
2023-04-12T10:05:04.542Z, 46.05
2023-04-12T10:06:04.379Z, 45.97
2023-04-12T10:07:04.342Z, 45.96
2023-04-12T10:08:04.352Z, 45.88
2023-04-12T10:09:04.405Z, 45.77
2023-04-12T10:10:04.398Z, 45.56
2023-04-12T10:11:04.396Z, 45.39
2023-04-12T10:12:04.391Z, 45.26
2023-04-12T10:13:04.392Z, 45.10
2023-04-12T10:14:04.402Z, 44.99
2023-04-12T10:15:04.422Z, 44.86
2023-04-12T10:16:04.460Z, 44.77
2023-04-12T10:17:04.527Z, 44.66
2023-04-12T10:18:04.506Z, 44.59
2023-04-12T10:19:04.619Z, 44.49
2023-04-12T10:20:04.531Z, 44.39
2023-04-12T10:21:04.515Z, 44.27
2023-04-12T10:22:04.509Z, 44.18
2023-04-12T10:23:04.513Z, 44.12
2023-04-12T10:24:04.514Z, 44.02
2023-04-12T10:25:04.516Z, 43.93
2023-04-12T10:26:04.539Z, 43.81
2023-04-12T10:27:04.605Z, 43.72
2023-04-12T10:28:04.566Z, 43.67
2023-04-12T10:29:04.587Z, 43.61
2023-04-12T10:30:04.650Z, 43.52
2023-04-12T10:31:04.654Z, 43.34
2023-04-12T10:32:04.830Z, 43.06
2023-04-12T10:33:04.995Z, 42.78
2023-04-12T10:34:04.747Z, 42.49
2023-04-12T10:35:04.683Z, 42.24
2023-04-12T10:36:04.871Z, 42.05
2023-04-12T10:37:04.739Z, 41.94
2023-04-12T10:38:04.722Z, 41.87
2023-04-12T10:39:04.716Z, 41.82
2023-04-12T10:40:04.733Z, 41.73
2023-04-12T10:41:04.740Z, 41.65
2023-04-12T10:42:04.777Z, 41.61
2023-04-12T10:43:04.747Z, 41.56
2023-04-12T10:44:04.751Z, 41.52
2023-04-12T10:45:04.857Z, 41.45
2023-04-12T10:46:04.798Z, 41.43
2023-04-12T10:47:04.968Z, 41.38
2023-04-12T10:48:04.884Z, 41.30
2023-04-12T10:49:04.888Z, 41.25
2023-04-12T10:50:04.887Z, 41.18
2023-04-12T10:51:04.906Z, 41.19
2023-04-12T10:52:04.921Z, 41.12
2023-04-12T10:53:04.928Z, 41.12
2023-04-12T10:54:04.914Z, 41.06
2023-04-12T10:55:04.911Z, 41.01
2023-04-12T10:56:04.942Z, 40.93
2023-04-12T10:57:04.935Z, 40.88
2023-04-12T10:58:05.038Z, 40.86
2023-04-12T10:59:05.449Z, 40.76
2023-04-12T11:00:05.045Z, 40.73
2023-04-12T11:01:05.133Z, 40.70
2023-04-12T11:02:05.242Z, 40.72
2023-04-12T11:03:05.293Z, 40.67
2023-04-12T11:04:05.251Z, 40.63
2023-04-12T11:05:05.164Z, 40.64
2023-04-12T11:06:20.236Z, 40.63
2023-04-12T11:07:05.064Z, 40.57
2023-04-12T11:08:05.050Z, 40.57
2023-04-12T11:09:05.046Z, 40.56
2023-04-12T11:10:05.062Z, 40.48
2023-04-12T11:11:05.132Z, 40.45
2023-04-12T11:12:05.205Z, 40.48
2023-04-12T11:13:05.128Z, 40.46
2023-04-12T11:14:05.170Z, 40.43
2023-04-12T11:15:05.149Z, 40.34
2023-04-12T11:16:05.199Z, 40.30
2023-04-12T11:17:05.232Z, 40.26
2023-04-12T11:18:05.282Z, 40.26
2023-04-12T11:19:05.175Z, 40.27
2023-04-12T11:20:05.315Z, 40.24
2023-04-12T11:21:05.213Z, 40.24
2023-04-12T11:22:05.217Z, 40.24
2023-04-12T11:23:05.276Z, 40.21
2023-04-12T11:24:05.308Z, 40.22
2023-04-12T11:25:05.320Z, 40.13
2023-04-12T11:26:05.363Z, 40.09
2023-04-12T11:27:05.317Z, 40.12
2023-04-12T11:28:13.896Z, 40.10
2023-04-12T11:29:05.316Z, 40.11
2023-04-12T11:30:05.320Z, 40.11
2023-04-12T11:31:05.428Z, 40.06
2023-04-12T11:32:05.381Z, 40.04
2023-04-12T11:33:05.392Z, 40.06
2023-04-12T11:34:05.372Z, 40.01
2023-04-12T11:35:05.366Z, 39.97
2023-04-12T11:36:05.398Z, 39.99
2023-04-12T11:37:05.380Z, 39.96
2023-04-12T11:38:05.462Z, 39.93
2023-04-12T11:39:05.435Z, 39.87
2023-04-12T11:40:05.475Z, 39.87
2023-04-12T11:41:05.498Z, 39.86
2023-04-12T11:42:05.480Z, 39.84
2023-04-12T11:43:05.508Z, 39.86
2023-04-12T11:44:05.476Z, 39.87
2023-04-12T11:45:12.138Z, 39.81
2023-04-12T11:46:05.588Z, 39.80
2023-04-12T11:47:05.572Z, 39.81
2023-04-12T11:48:05.679Z, 39.78
2023-04-12T11:49:05.596Z, 39.80
2023-04-12T11:50:05.617Z, 39.73
2023-04-12T11:51:11.338Z, 39.76
2023-04-12T11:52:05.604Z, 39.78
2023-04-12T11:53:05.675Z, 39.74
2023-04-12T11:54:05.654Z, 39.76
2023-04-12T11:55:05.645Z, 39.73
2023-04-12T11:56:05.683Z, 39.71
2023-04-12T11:57:06.008Z, 39.71
2023-04-12T11:58:05.730Z, 39.72
2023-04-12T11:59:05.737Z, 39.66
2023-04-12T12:00:05.764Z, 39.60
2023-04-12T12:01:05.732Z, 39.61
2023-04-12T12:02:17.115Z, 39.69
2023-04-12T12:03:08.392Z, 39.58
2023-04-12T12:04:06.150Z, 39.57
2023-04-12T12:05:06.018Z, 39.57
2023-04-12T12:06:06.184Z, 39.53
2023-04-12T12:07:05.987Z, 39.52
2023-04-12T12:08:05.832Z, 39.50
2023-04-12T12:09:05.818Z, 39.57
2023-04-12T12:10:05.890Z, 39.50
2023-04-12T12:11:08.175Z, 39.46
2023-04-12T12:12:05.911Z, 39.45
2023-04-12T12:13:05.871Z, 39.47
2023-04-12T12:14:05.930Z, 39.45
2023-04-12T12:15:05.906Z, 39.42
2023-04-12T12:16:05.994Z, 39.40
2023-04-12T12:17:05.930Z, 39.39
2023-04-12T12:18:06.036Z, 39.36
2023-04-12T12:19:05.951Z, 39.36
2023-04-12T12:20:05.951Z, 39.37
2023-04-12T12:21:05.951Z, 39.37
2023-04-12T12:22:05.985Z, 39.37
2023-04-12T12:23:05.982Z, 39.36
2023-04-12T12:24:05.982Z, 39.36
2023-04-12T12:25:06.053Z, 39.33
2023-04-12T12:26:18.453Z, 39.30
2023-04-12T12:27:06.085Z, 39.30
2023-04-12T12:28:06.166Z, 39.31
2023-04-12T12:29:06.111Z, 39.29
2023-04-12T12:30:06.086Z, 39.23